Time;durP1;ratioP1;P1;durP2;ratioP2;P2;SDS_P1;SDS_P2;PMS_P1;PMS_P2;Temp;Humidity;BMP_temperature;BMP_pressure;BME280_temperature;BME280_humidity;BME280_pressure;Samples;Min_cycle;Max_cycle;Signal;HPM_P1;HPM_P2
2023/06/21 00:00:24;;;;;;;2.88;2.03;;;;;;;24.51;44.38;101167.47;16120203;19;129611;-42
2023/06/21 00:05:47;;;;;;;2.55;1.95;;;;;;;24.51;44.61;101175.84;16122014;19;130866;-43
2023/06/21 00:11:10;;;;;;;3.78;2.17;;;;;;;24.51;44.22;101169.44;16123813;19;130929;-43
2023/06/21 00:16:31;;;;;;;3.25;1.85;;;;;;;24.50;44.41;101182.56;16122040;19;129403;-42
2023/06/21 00:21:53;;;;;;;2.28;2.05;;;;;;;24.49;44.36;101182.84;16119182;19;130063;-42
2023/06/21 00:27:17;;;;;;;3.67;2.10;;;;;;;24.49;44.54;101194.91;16116831;19;130532;-44
2023/06/21 00:32:39;;;;;;;3.97;2.03;;;;;;;24.47;44.30;101191.53;16122173;19;129652;-43
2023/06/21 00:38:01;;;;;;;2.25;1.65;;;;;;;24.47;44.49;101196.28;16116422;19;129703;-44
2023/06/21 00:43:23;;;;;;;2.72;1.95;;;;;;;24.46;44.32;101184.25;16116349;19;129533;-42
2023/06/21 00:48:45;;;;;;;2.10;1.75;;;;;;;24.46;44.22;101184.25;16113879;19;130336;-42
2023/06/21 00:54:15;;;;;;;3.33;2.20;;;;;;;24.45;44.32;101176.13;16117357;19;129922;-43
2023/06/21 00:59:38;;;;;;;3.65;2.10;;;;;;;24.45;44.62;101178.94;16109476;19;130168;-42
2023/06/21 01:05:01;;;;;;;2.40;2.03;;;;;;;24.44;44.17;101183.69;16117032;19;130818;-41
2023/06/21 01:10:26;;;;;;;2.58;2.05;;;;;;;24.42;44.28;101189.59;16114511;19;130068;-41
2023/06/21 01:15:50;;;;;;;;;;;;;;;24.39;44.40;101197.66;16108667;19;132016;-42
2023/06/21 01:21:18;;;;;;;3.83;2.17;;;;;;;24.42;44.50;101185.94;16120562;19;130125;-44
2023/06/21 01:26:58;;;;;;;3.17;1.90;;;;;;;24.41;44.56;101184.25;16115174;19;129742;-41
2023/06/21 01:32:21;;;;;;;2.65;1.60;;;;;;;24.39;44.22;101166.91;16117046;19;129625;-44
2023/06/21 01:37:43;;;;;;;3.10;1.90;;;;;;;24.38;44.23;101176.41;16116481;19;130130;-48
2023/06/21 01:43:06;;;;;;;1.88;1.42;;;;;;;24.38;43.92;101176.41;16112920;19;130079;-41
2023/06/21 01:48:29;;;;;;;2.67;1.60;;;;;;;24.38;44.16;101182.88;16101666;19;130654;-42
2023/06/21 01:53:52;;;;;;;2.03;1.60;;;;;;;24.37;44.12;101185.94;16118172;19;129488;-42
2023/06/21 01:59:14;;;;;;;4.05;1.90;;;;;;;24.36;44.17;101206.63;16114613;19;130513;-42
2023/06/21 02:04:38;;;;;;;2.38;1.65;;;;;;;24.36;44.06;101198.25;16113200;19;131112;-42
2023/06/21 02:10:01;;;;;;;2.83;1.90;;;;;;;24.34;44.27;101220.88;16110093;19;130627;-42
2023/06/21 02:15:23;;;;;;;2.10;1.75;;;;;;;24.36;44.08;101229.00;16112702;19;130041;-42
2023/06/21 02:20:47;;;;;;;2.55;1.70;;;;;;;24.35;44.09;101238.50;16114367;19;129910;-42
2023/06/21 02:26:09;;;;;;;3.30;1.95;;;;;;;24.34;44.04;101234.88;16113746;19;129854;-42
2023/06/21 02:31:34;;;;;;;3.80;1.98;;;;;;;24.33;43.85;101246.34;16109780;19;132518;-42
2023/06/21 02:36:56;;;;;;;2.28;1.95;;;;;;;24.33;44.05;101254.72;16108157;19;132045;-42
2023/06/21 02:42:18;;;;;;;2.30;1.90;;;;;;;24.33;44.20;101257.53;16108265;19;129732;-43
2023/06/21 02:47:40;;;;;;;2.15;1.52;;;;;;;24.31;44.02;101274.56;16109069;19;130056;-47
2023/06/21 02:53:01;;;;;;;2.58;1.70;;;;;;;24.30;44.06;101275.69;16107849;19;130637;-44
2023/06/21 02:58:23;;;;;;;2.75;1.58;;;;;;;24.31;44.04;101279.31;16107501;19;131178;-44
2023/06/21 03:03:45;;;;;;;2.50;1.80;;;;;;;24.30;44.02;101269.25;16111679;19;129755;-43
2023/06/21 03:09:08;;;;;;;2.35;1.83;;;;;;;24.30;44.10;101280.44;16107104;19;131020;-43
2023/06/21 03:14:30;;;;;;;2.63;1.80;;;;;;;24.27;44.26;101288.25;16103312;19;130125;-41
2023/06/21 03:19:52;;;;;;;2.05;1.67;;;;;;;24.27;44.16;101282.66;16105938;19;129696;-44
2023/06/21 03:25:15;;;;;;;2.40;1.98;;;;;;;24.28;44.12;101289.09;16105956;19;131104;-44
2023/06/21 03:30:36;;;;;;;3.58;1.90;;;;;;;24.26;44.17;101297.75;16106809;19;129347;-43
2023/06/21 03:35:58;;;;;;;2.38;1.77;;;;;;;24.25;44.21;101303.63;16104899;19;130622;-44
2023/06/21 03:41:20;;;;;;;3.08;2.30;;;;;;;24.24;43.95;101308.41;16102264;19;130667;-42
2023/06/21 03:46:42;;;;;;;2.30;1.80;;;;;;;24.23;43.98;101292.72;16103970;19;131396;-45
2023/06/21 03:52:05;;;;;;;2.30;1.83;;;;;;;24.23;44.06;101306.69;16103037;19;130623;-45
2023/06/21 03:57:27;;;;;;;2.17;1.83;;;;;;;24.22;44.09;101307.78;16107303;19;130653;-44
2023/06/21 04:02:49;;;;;;;2.30;2.10;;;;;;;24.22;43.90;101312.53;16107592;19;129521;-43
2023/06/21 04:08:12;;;;;;;2.17;1.95;;;;;;;24.20;44.13;101326.78;16108628;19;129626;-42
2023/06/21 04:13:34;;;;;;;3.17;1.73;;;;;;;24.20;44.11;101334.31;16121821;19;129947;-41
2023/06/21 04:18:56;;;;;;;2.72;2.10;;;;;;;24.19;44.12;101347.47;16120987;19;129861;-44
2023/06/21 04:24:17;;;;;;;3.03;1.80;;;;;;;24.20;44.28;101360.34;16115929;19;130638;-43
2023/06/21 04:29:40;;;;;;;2.17;1.98;;;;;;;24.19;43.95;101364.25;16118693;19;131179;-44
2023/06/21 04:35:03;;;;;;;5.38;2.00;;;;;;;24.19;43.68;101368.97;16119763;19;130455;-42
2023/06/21 04:40:25;;;;;;;2.05;1.85;;;;;;;24.18;44.08;101367.31;16122015;19;130865;-41
2023/06/21 04:45:48;;;;;;;2.03;1.83;;;;;;;24.18;43.96;101373.75;16119212;19;129243;-44
2023/06/21 04:51:15;;;;;;;2.55;2.08;;;;;;;24.17;44.09;101377.66;16120747;19;130336;-42
2023/06/21 04:56:37;;;;;;;2.10;1.90;;;;;;;24.16;44.04;101367.59;16118124;19;129460;-41
2023/06/21 05:01:59;;;;;;;2.10;1.90;;;;;;;24.16;43.80;101387.16;16118102;19;129359;-44
2023/06/21 05:07:21;;;;;;;4.38;2.10;;;;;;;24.16;44.36;101391.91;16114650;19;130926;-45
2023/06/21 05:12:43;;;;;;;2.83;1.85;;;;;;;24.14;44.04;101389.38;16120402;19;130805;-41
2023/06/21 05:18:05;;;;;;;2.85;1.70;;;;;;;24.15;44.13;101399.44;16116396;19;130589;-45
2023/06/21 05:23:27;;;;;;;1.95;1.75;;;;;;;24.13;44.19;101404.47;16113611;19;130436;-43
2023/06/21 05:28:49;;;;;;;5.78;2.00;;;;;;;24.14;44.22;101399.72;16121070;19;129795;-42
2023/06/21 05:34:11;;;;;;;2.10;1.85;;;;;;;24.15;44.36;101409.81;16117335;19;131228;-44
2023/06/21 05:39:33;;;;;;;3.25;2.25;;;;;;;24.14;44.08;101414.53;16115782;19;133748;-47
2023/06/21 05:44:55;;;;;;;3.42;2.00;;;;;;;24.15;44.17;101434.97;16107646;19;131879;-45
2023/06/21 05:50:17;;;;;;;3.83;2.00;;;;;;;24.15;44.21;101430.19;16107102;19;131735;-46
2023/06/21 05:55:39;;;;;;;3.92;2.28;;;;;;;24.15;44.24;101434.97;16116036;19;129300;-47
2023/06/21 06:01:02;;;;;;;3.53;2.58;;;;;;;24.14;44.21;101445.28;16115424;19;130560;-43
2023/06/21 06:06:44;;;;;;;4.95;2.80;;;;;;;24.14;44.39;101455.63;16115465;19;129596;-43
2023/06/21 06:12:06;;;;;;;4.82;3.63;;;;;;;24.12;44.60;101469.91;16114745;19;130166;-43
2023/06/21 06:17:30;;;;;;;6.80;4.40;;;;;;;24.10;45.24;101478.53;16114305;19;129846;-45
2023/06/21 06:22:52;;;;;;;8.80;4.28;;;;;;;24.12;45.36;101497.84;16115461;19;130178;-44
2023/06/21 06:28:14;;;;;;;13.02;5.68;;;;;;;24.12;45.70;101509.03;16113417;19;131134;-46
2023/06/21 06:33:36;;;;;;;9.98;6.03;;;;;;;24.12;46.27;101514.63;16112490;19;129216;-43
2023/06/21 06:38:58;;;;;;;15.73;6.70;;;;;;;24.11;46.41;101507.34;16116252;19;129686;-46
2023/06/21 06:44:20;;;;;;;10.35;6.22;;;;;;;24.10;46.16;101506.47;16114024;19;131502;-48
2023/06/21 06:49:41;;;;;;;10.70;5.65;;;;;;;24.09;46.16;101520.75;16114535;19;130329;-44
2023/06/21 06:55:04;;;;;;;9.63;5.60;;;;;;;24.10;45.93;101522.44;16103181;19;130138;-44
2023/06/21 07:00:26;;;;;;;10.02;4.97;;;;;;;24.10;45.56;101516.84;16110366;19;130329;-51
2023/06/21 07:05:49;;;;;;;7.28;4.38;;;;;;;24.12;45.86;101531.38;16111542;19;132413;-44
2023/06/21 07:11:11;;;;;;;9.80;4.90;;;;;;;24.14;45.64;101528.31;16108402;19;130818;-48
2023/06/21 07:16:41;;;;;;;8.43;4.35;;;;;;;24.16;45.65;101538.09;16110895;19;129420;-45
2023/06/21 07:22:04;;;;;;;5.65;4.47;;;;;;;24.15;45.31;101539.22;16108535;19;132955;-44
2023/06/21 07:27:26;;;;;;;5.95;4.40;;;;;;;24.17;45.81;101541.75;16113794;19;129744;-43
2023/06/21 07:32:49;;;;;;;9.95;4.30;;;;;;;24.18;45.67;101544.28;16109608;19;133381;-49
2023/06/21 07:38:11;;;;;;;8.35;4.53;;;;;;;24.18;45.49;101555.47;16112292;19;129848;-45
2023/06/21 07:43:33;;;;;;;7.38;4.68;;;;;;;24.20;45.62;101556.03;16100924;19;132176;-43
2023/06/21 07:48:55;;;;;;;6.20;4.63;;;;;;;24.21;45.45;101556.88;16122389;19;130111;-48
2023/06/21 07:54:17;;;;;;;7.15;3.80;;;;;;;24.20;45.28;101557.97;16123162;19;129793;-43
2023/06/21 07:59:39;;;;;;;5.68;3.55;;;;;;;24.18;44.97;101569.44;16120750;19;130613;-44
2023/06/21 08:05:00;;;;;;;4.90;3.08;;;;;;;24.20;45.04;101578.41;16118751;19;130428;-44
2023/06/21 08:10:23;;;;;;;4.40;2.95;;;;;;;24.21;44.87;101574.50;16118844;19;129746;-46
2023/06/21 08:15:45;;;;;;;5.20;3.03;;;;;;;24.24;44.66;101579.59;16116903;19;131124;-45
2023/06/21 08:21:08;;;;;;;18.30;4.78;;;;;;;24.29;44.67;101589.97;16116486;19;129905;-53
2023/06/21 08:26:30;;;;;;;8.57;4.35;;;;;;;24.33;44.91;101574.31;16116221;19;129822;-51
2023/06/21 08:31:52;;;;;;;20.92;9.90;;;;;;;24.37;44.82;101583.84;16117403;19;130794;-52
2023/06/21 08:37:14;;;;;;;18.27;8.73;;;;;;;24.41;44.81;101584.16;16122599;19;130204;-53
2023/06/21 08:42:35;;;;;;;26.50;9.35;;;;;;;24.44;44.73;101578.03;16120062;19;130611;-55
2023/06/21 08:48:01;;;;;;;19.55;8.60;;;;;;;24.45;44.72;101596.50;16118032;19;130226;-53
2023/06/21 08:53:35;;;;;;;17.13;7.60;;;;;;;24.46;44.62;101595.38;16120596;19;129384;-56
2023/06/21 08:59:05;;;;;;;15.25;7.45;;;;;;;24.48;44.28;101595.09;16117861;19;130164;-48
2023/06/21 09:04:31;;;;;;;12.77;4.72;;;;;;;24.49;44.00;101602.38;16115546;19;130724;-47
2023/06/21 09:09:56;;;;;;;15.55;5.38;;;;;;;24.49;43.95;101597.66;16108999;19;131515;-45
2023/06/21 09:15:18;;;;;;;14.30;4.30;;;;;;;24.50;43.70;101609.66;16111951;19;129411;-46
2023/06/21 09:20:45;;;;;;;14.10;5.68;;;;;;;24.52;43.83;101608.28;16119747;19;132064;-45
2023/06/21 09:26:09;;;;;;;11.73;5.03;;;;;;;24.48;43.38;101601.56;16120471;19;130053;-44
2023/06/21 09:31:31;;;;;;;7.95;3.60;;;;;;;24.48;43.61;101601.56;16120403;19;130709;-44
2023/06/21 09:36:54;;;;;;;8.13;3.58;;;;;;;24.48;43.52;101609.94;16115456;19;130361;-42
2023/06/21 09:42:16;;;;;;;6.18;3.15;;;;;;;24.49;43.35;101610.78;16119597;19;131386;-45
2023/06/21 09:47:41;;;;;;;7.70;2.90;;;;;;;24.50;43.48;101621.69;16117421;19;129614;-44
2023/06/21 09:53:03;;;;;;;7.18;2.70;;;;;;;24.49;43.29;101613.56;16115256;19;132071;-47
2023/06/21 09:58:25;;;;;;;5.05;2.35;;;;;;;24.51;43.09;101619.75;16116587;19;130934;-47
2023/06/21 10:03:47;;;;;;;4.68;2.50;;;;;;;24.52;42.94;101622.25;16116740;19;129849;-48
2023/06/21 10:09:09;;;;;;;2.92;2.38;;;;;;;24.54;42.86;101631.22;16113524;19;130154;-47
2023/06/21 10:14:32;;;;;;;3.05;2.20;;;;;;;24.57;42.72;101635.44;16116014;19;130968;-45
2023/06/21 10:19:57;;;;;;;3.78;2.25;;;;;;;24.57;42.70;101644.69;16112885;19;129719;-53
2023/06/21 10:25:22;;;;;;;4.87;1.97;;;;;;;24.60;42.42;101642.47;16115044;19;129882;-44
2023/06/21 10:30:46;;;;;;;4.18;1.85;;;;;;;24.61;42.15;101652.53;16112943;19;130882;-46
2023/06/21 10:36:12;;;;;;;3.78;2.00;;;;;;;24.62;42.31;101645.81;16115731;19;130561;-47
2023/06/21 10:41:36;;;;;;;6.65;2.20;;;;;;;24.64;42.10;101654.78;16113605;19;130267;-45
2023/06/21 10:47:00;;;;;;;4.93;1.90;;;;;;;24.68;41.66;101650.34;16113829;19;130970;-44
2023/06/21 10:52:23;;;;;;;3.17;1.98;;;;;;;24.70;41.59;101654.53;16112897;19;130085;-47
2023/06/21 10:57:48;;;;;;;8.85;2.28;;;;;;;24.72;41.56;101660.72;16110599;19;131124;-47
2023/06/21 11:03:15;;;;;;;6.18;1.88;;;;;;;24.73;41.36;101661.56;16113388;19;131115;-53
2023/06/21 11:08:38;;;;;;;5.78;2.00;;;;;;;24.72;41.43;101665.47;16110948;19;130795;-51
2023/06/21 11:14:02;;;;;;;5.20;2.45;;;;;;;24.72;41.68;101662.69;16110038;19;129856;-46
2023/06/21 11:19:26;;;;;;;5.18;1.95;;;;;;;24.70;41.40;101660.13;16101492;19;130831;-46
2023/06/21 11:24:59;;;;;;;7.43;2.33;;;;;;;24.75;41.51;101650.91;16105515;19;130281;-47
2023/06/21 11:30:22;;;;;;;6.15;2.30;;;;;;;24.77;41.35;101654.28;16106374;19;129342;-43
2023/06/21 11:35:51;;;;;;;4.20;2.13;;;;;;;24.80;41.58;101662.16;16101964;19;129527;-44
2023/06/21 11:41:40;;;;;;;4.82;2.05;;;;;;;24.82;41.72;101657.13;16105185;19;130132;-45
2023/06/21 11:47:14;;;;;;;4.45;2.05;;;;;;;24.85;41.45;101670.59;16110683;19;129964;-47
2023/06/21 11:52:36;;;;;;;5.53;2.03;;;;;;;24.88;41.63;101670.06;16108520;19;129799;-47
2023/06/21 11:57:58;;;;;;;3.97;2.20;;;;;;;24.92;41.45;101667.59;16108397;19;129700;-47
2023/06/21 12:03:22;;;;;;;2.80;1.98;;;;;;;24.96;41.33;101670.69;16109681;19;129704;-45
2023/06/21 12:08:44;;;;;;;8.17;2.30;;;;;;;24.96;41.12;101673.47;16106277;19;130031;-50
2023/06/21 12:14:08;;;;;;;3.60;2.30;;;;;;;24.97;41.29;101675.16;16107214;19;129957;-46
2023/06/21 12:19:32;;;;;;;5.00;2.37;;;;;;;24.97;41.23;101687.19;16108425;19;131379;-48
2023/06/21 12:24:55;;;;;;;4.18;2.30;;;;;;;24.98;41.37;101688.88;16107417;19;130162;-44
2023/06/21 12:30:17;;;;;;;6.05;2.17;;;;;;;25.00;40.91;101685.78;16110849;19;130473;-44
2023/06/21 12:35:39;;;;;;;6.75;2.55;;;;;;;25.01;40.73;101682.75;16117860;19;131244;-44
2023/06/21 12:41:01;;;;;;;6.18;2.03;;;;;;;25.05;40.63;101687.81;16115517;19;130872;-48
2023/06/21 12:46:23;;;;;;;7.22;2.28;;;;;;;25.06;40.91;101690.31;16113405;19;130066;-48
2023/06/21 12:51:46;;;;;;;4.95;1.90;;;;;;;25.08;40.19;101699.28;16120752;19;129644;-47
2023/06/21 12:57:10;;;;;;;3.25;2.17;;;;;;;25.09;40.33;101700.97;16118487;19;132321;-52
2023/06/21 13:02:32;;;;;;;4.00;2.20;;;;;;;25.11;40.17;101703.50;16122263;19;131240;-53
2023/06/21 13:07:58;;;;;;;4.95;2.00;;;;;;;25.11;40.28;101704.31;16121972;19;131744;-53
2023/06/21 13:13:19;;;;;;;5.75;2.22;;;;;;;25.11;40.52;101701.53;16116794;19;131248;-53
2023/06/21 13:18:44;;;;;;;5.38;2.05;;;;;;;25.11;40.50;101695.09;16117745;19;129777;-52
2023/06/21 13:24:06;;;;;;;2.72;2.00;;;;;;;25.11;40.35;101687.53;16119906;19;129465;-45
2023/06/21 13:29:29;;;;;;;3.97;1.95;;;;;;;25.12;40.08;101699.59;16117460;19;131315;-47
2023/06/21 13:34:51;;;;;;;4.22;2.20;;;;;;;25.12;39.83;101694.81;16119441;19;129742;-46
2023/06/21 13:40:14;;;;;;;6.00;2.10;;;;;;;25.11;40.25;101704.31;16117544;19;131402;-46
2023/06/21 13:45:36;;;;;;;5.28;1.98;;;;;;;25.09;40.07;101703.78;16116039;19;129602;-45
2023/06/21 13:50:58;;;;;;;4.45;2.13;;;;;;;25.11;39.85;101700.69;16105370;19;130518;-48
2023/06/21 13:56:20;;;;;;;3.83;1.83;;;;;;;25.11;40.23;101687.53;16110145;19;129647;-49
2023/06/21 14:01:42;;;;;;;2.80;1.83;;;;;;;25.14;40.30;101691.75;16109938;19;129997;-45
2023/06/21 14:07:05;;;;;;;7.03;2.10;;;;;;;25.16;40.27;101690.38;16113603;19;129820;-49
2023/06/21 14:12:27;;;;;;;8.85;2.13;;;;;;;25.17;39.83;101694.84;16118852;19;129524;-47
2023/06/21 14:17:49;;;;;;;5.25;2.00;;;;;;;25.20;39.79;101704.66;16108145;19;136058;-46
2023/06/21 14:23:14;;;;;;;5.80;1.83;;;;;;;25.22;39.86;101696.00;16114241;19;130741;-46
2023/06/21 14:28:39;;;;;;;4.40;2.00;;;;;;;25.23;39.26;101703.28;16117435;19;130635;-44
2023/06/21 14:34:02;;;;;;;2.83;2.00;;;;;;;25.24;39.27;101700.19;16114256;19;129906;-46
2023/06/21 14:39:24;;;;;;;4.88;2.03;;;;;;;25.25;39.43;101693.50;16113376;19;131070;-46
2023/06/21 14:44:46;;;;;;;5.25;1.77;;;;;;;25.26;38.76;101694.31;16111378;19;129717;-45
2023/06/21 14:50:08;;;;;;;7.32;2.13;;;;;;;25.26;38.65;101688.72;16107773;19;129202;-45
2023/06/21 14:55:30;;;;;;;6.72;2.08;;;;;;;25.27;38.72;101694.06;16111201;19;129499;-45
2023/06/21 15:00:52;;;;;;;2.55;2.08;;;;;;;25.24;37.96;101694.59;16112245;19;129618;-45
2023/06/21 15:06:14;;;;;;;6.93;2.17;;;;;;;25.20;38.00;101693.44;16110160;19;130493;-47
2023/06/21 15:11:39;;;;;;;3.40;2.15;;;;;;;25.19;37.54;101697.38;16107661;19;131294;-47
2023/06/21 15:17:01;;;;;;;3.42;2.13;;;;;;;25.17;37.48;101697.66;16108362;19;129904;-50
2023/06/21 15:22:23;;;;;;;8.15;2.25;;;;;;;25.18;37.38;101702.13;16108022;19;129253;-47
2023/06/21 15:27:45;;;;;;;6.03;2.40;;;;;;;25.19;37.52;101711.38;16108812;19;130866;-49
2023/06/21 15:33:07;;;;;;;5.63;2.05;;;;;;;25.18;37.41;101704.94;16108715;19;129291;-50
2023/06/21 15:38:29;;;;;;;5.10;1.80;;;;;;;25.18;37.13;101707.75;16107191;19;130645;-49
2023/06/21 15:43:51;;;;;;;5.20;2.22;;;;;;;25.17;37.45;101708.84;16102482;19;130703;-46
2023/06/21 15:49:14;;;;;;;4.20;1.90;;;;;;;25.17;37.42;101710.81;16104773;19;133163;-45
2023/06/21 15:54:35;;;;;;;5.43;1.80;;;;;;;25.21;37.30;101719.50;16097074;19;130270;-46
2023/06/21 15:59:58;;;;;;;8.35;2.20;;;;;;;25.22;37.55;101710.00;16101076;19;130391;-52
2023/06/21 16:05:20;;;;;;;3.03;1.77;;;;;;;25.25;37.88;101699.09;16109021;19;131802;-44
2023/06/21 16:10:42;;;;;;;9.57;2.58;;;;;;;25.27;37.27;101710.00;16123074;19;129316;-47
2023/06/21 16:16:07;;;;;;;;;;;;;;;25.26;37.50;101722.31;16119395;19;129232;-48
2023/06/21 16:21:29;;;;;;;3.65;2.17;;;;;;;25.27;37.35;101726.81;16119164;19;131361;-46
2023/06/21 16:26:52;;;;;;;4.95;1.98;;;;;;;25.26;36.96;101730.72;16120874;19;129969;-46
2023/06/21 16:32:17;;;;;;;3.38;1.92;;;;;;;25.27;37.11;101724.00;16119256;19;130361;-47
2023/06/21 16:37:39;;;;;;;3.67;2.00;;;;;;;25.29;37.31;101711.41;16123406;19;129599;-44
2023/06/21 16:43:00;;;;;;;10.05;2.47;;;;;;;25.29;37.38;101714.22;16112752;19;130294;-46
2023/06/21 16:48:22;;;;;;;10.93;2.55;;;;;;;25.29;37.23;101697.41;16114203;19;130240;-45
2023/06/21 16:59:21;;;;;;;18.80;3.85;;;;;;;25.30;36.96;101698.25;16103507;19;131843;-49
2023/06/21 17:04:43;;;;;;;30.27;3.63;;;;;;;25.33;36.77;101692.94;16114447;19;130166;-45
2023/06/21 17:10:05;;;;;;;14.35;3.05;;;;;;;25.34;36.90;101685.41;16115490;19;131675;-48
2023/06/21 17:15:27;;;;;;;13.55;2.72;;;;;;;25.36;36.95;101685.13;16115233;19;131215;-45
2023/06/21 17:20:49;;;;;;;17.55;2.72;;;;;;;25.35;37.02;101692.69;16108679;19;131399;-44
2023/06/21 17:26:11;;;;;;;9.38;2.75;;;;;;;25.38;36.90;101702.50;16116856;19;130933;-46
2023/06/21 17:31:33;;;;;;;4.82;2.15;;;;;;;25.38;36.73;101700.53;16118078;19;131420;-46
2023/06/21 17:36:55;;;;;;;8.85;2.53;;;;;;;25.41;36.83;101701.97;16117241;19;131077;-47
2023/06/21 17:42:17;;;;;;;5.43;1.95;;;;;;;25.43;36.79;101692.16;16118126;19;129222;-47
2023/06/21 17:47:39;;;;;;;6.10;2.05;;;;;;;25.45;36.84;101686.28;16116277;19;131143;-44
2023/06/21 17:53:01;;;;;;;6.40;2.10;;;;;;;25.44;36.98;101684.59;16115396;19;130892;-43
2023/06/21 17:58:24;;;;;;;5.30;2.20;;;;;;;25.46;37.10;101688.81;16119008;19;130003;-44
2023/06/21 18:03:47;;;;;;;8.27;2.40;;;;;;;25.46;37.17;101687.97;16110847;19;131649;-44
2023/06/21 18:09:09;;;;;;;5.45;2.00;;;;;;;25.45;37.25;101692.72;16117675;19;130103;-43
2023/06/21 18:14:30;;;;;;;5.20;1.85;;;;;;;25.44;37.47;101677.03;16116411;19;129797;-46
2023/06/21 18:19:52;;;;;;;5.63;1.90;;;;;;;25.44;37.19;101671.44;16111142;19;130038;-45
2023/06/21 18:25:15;;;;;;;4.07;1.70;;;;;;;25.41;37.26;101666.38;16113717;19;129591;-44
2023/06/21 18:30:37;;;;;;;3.30;1.63;;;;;;;25.39;37.09;101665.81;16113893;19;129286;-43
2023/06/21 18:35:59;;;;;;;7.70;2.20;;;;;;;25.38;37.41;101658.50;16110337;19;129911;-44
2023/06/21 18:41:21;;;;;;;3.88;1.90;;;;;;;25.36;37.57;101657.94;16103356;19;130800;-44
2023/06/21 18:46:43;;;;;;;4.90;2.22;;;;;;;25.33;37.67;101661.31;16109751;19;131234;-44
2023/06/21 18:52:05;;;;;;;2.88;2.00;;;;;;;25.32;37.89;101668.03;16110700;19;130324;-46
2023/06/21 18:57:27;;;;;;;3.90;2.28;;;;;;;25.29;38.25;101660.16;16112862;19;131020;-45
2023/06/21 19:02:50;;;;;;;4.20;1.95;;;;;;;25.26;37.99;101655.97;16110945;19;130734;-46
2023/06/21 19:08:12;;;;;;;6.88;2.42;;;;;;;25.24;38.35;101652.59;16102955;19;130000;-44
2023/06/21 19:13:34;;;;;;;3.83;2.17;;;;;;;25.23;38.67;101656.50;16107080;19;131158;-43
2023/06/21 19:18:56;;;;;;;5.18;2.35;;;;;;;25.21;38.67;101655.09;16104362;19;130426;-42
2023/06/21 19:24:17;;;;;;;3.38;2.40;;;;;;;25.17;39.16;101652.03;16103682;19;130128;-49
2023/06/21 19:29:39;;;;;;;5.88;2.55;;;;;;;25.14;38.76;101650.59;16103185;19;129468;-44
2023/06/21 19:35:02;;;;;;;5.70;2.75;;;;;;;25.12;39.09;101664.00;16102568;19;130628;-44
2023/06/21 19:40:25;;;;;;;5.65;2.40;;;;;;;25.09;39.14;101678.59;16103025;19;131853;-47
2023/06/21 19:45:47;;;;;;;9.50;4.00;;;;;;;25.07;39.46;101685.53;16117423;19;131029;-47
2023/06/21 19:51:09;;;;;;;10.05;5.95;;;;;;;24.88;40.01;101681.25;16119246;19;135714;-45
2023/06/21 19:56:32;;;;;;;11.73;6.75;;;;;;;24.66;40.54;101698.19;16121432;19;129439;-47
2023/06/21 20:01:54;;;;;;;8.88;6.88;;;;;;;24.49;40.53;101731.91;16119669;19;129674;-46
2023/06/21 20:07:17;;;;;;;10.27;6.38;;;;;;;24.40;41.24;101750.25;16115741;19;130562;-43
2023/06/21 20:12:39;;;;;;;8.45;5.68;;;;;;;24.36;41.06;101743.53;16118807;19;131340;-45
2023/06/21 20:18:01;;;;;;;12.52;5.88;;;;;;;24.35;41.40;101762.25;16113642;19;131324;-44
2023/06/21 20:23:23;;;;;;;13.98;6.47;;;;;;;24.35;41.43;101767.00;16114569;19;131428;-41
2023/06/21 20:28:45;;;;;;;15.90;5.65;;;;;;;24.32;41.25;101784.31;16114181;19;130666;-41
2023/06/21 20:34:06;;;;;;;11.70;5.72;;;;;;;24.32;41.05;101787.94;16106120;19;130343;-42
2023/06/21 20:39:28;;;;;;;8.98;5.05;;;;;;;24.30;41.11;101795.78;16118386;19;130553;-43
2023/06/21 20:44:50;;;;;;;13.30;5.18;;;;;;;24.29;41.20;101801.59;16118901;19;129371;-44
2023/06/21 20:50:12;;;;;;;8.68;5.00;;;;;;;24.29;41.03;101804.41;16112422;19;129900;-42
2023/06/21 20:55:36;;;;;;;6.47;4.72;;;;;;;24.28;41.22;101809.16;16119522;19;133228;-45
2023/06/21 21:00:58;;;;;;;11.63;4.28;;;;;;;24.25;41.12;101798.50;16114265;19;130380;-43
2023/06/21 21:06:19;;;;;;;7.38;3.70;;;;;;;24.29;41.10;101804.41;16112372;19;130712;-43
2023/06/21 21:11:41;;;;;;;8.63;2.60;;;;;;;24.35;40.95;101803.38;16108275;19;129242;-42
2023/06/21 21:17:04;;;;;;;5.72;2.78;;;;;;;24.41;40.97;101810.69;16105321;19;130405;-43
2023/06/21 21:22:25;;;;;;;6.90;2.20;;;;;;;24.45;40.90;101803.47;16105117;19;131508;-44
2023/06/21 21:27:47;;;;;;;4.97;1.80;;;;;;;24.49;40.84;101804.63;16106297;19;132341;-42
2023/06/21 21:33:10;;;;;;;6.10;2.00;;;;;;;24.52;40.39;101806.88;16103310;19;130516;-44
2023/06/21 21:38:32;;;;;;;5.32;1.90;;;;;;;24.55;40.57;101800.75;16111265;19;129138;-42
2023/06/21 21:43:55;;;;;;;3.55;2.00;;;;;;;24.57;40.40;101795.75;16105691;19;130489;-42
2023/06/21 21:49:17;;;;;;;3.10;1.85;;;;;;;24.58;40.46;101791.84;16108715;19;130712;-44
2023/06/21 21:54:39;;;;;;;5.55;2.20;;;;;;;24.57;40.60;101784.56;16109665;19;131311;-42
2023/06/21 22:00:04;;;;;;;3.83;1.88;;;;;;;24.60;40.42;101790.72;16102761;19;130523;-44
2023/06/21 22:05:25;;;;;;;3.83;1.73;;;;;;;24.60;40.75;101801.91;16107471;19;129290;-41
2023/06/21 22:10:48;;;;;;;3.42;1.52;;;;;;;24.60;40.40;101805.53;16109818;19;130292;-43
2023/06/21 22:16:12;;;;;;;2.15;1.50;;;;;;;24.60;40.45;101794.34;16105744;19;130139;-44
2023/06/21 22:21:34;;;;;;;2.65;1.77;;;;;;;24.61;40.31;101792.41;16111506;19;130895;-45
2023/06/21 22:26:56;;;;;;;2.35;1.67;;;;;;;24.61;40.36;101778.44;16106921;19;130560;-43
2023/06/21 22:32:18;;;;;;;4.22;2.00;;;;;;;24.60;40.45;101782.34;16108663;19;131687;-43
2023/06/21 22:37:40;;;;;;;2.08;1.52;;;;;;;24.60;40.41;101791.56;16108168;19;132884;-44
2023/06/21 22:43:02;;;;;;;2.67;1.70;;;;;;;24.60;40.63;101796.31;16105128;19;131089;-44
2023/06/21 22:48:24;;;;;;;5.18;1.77;;;;;;;24.59;40.36;101795.47;16109621;19;130189;-45
2023/06/21 22:53:46;;;;;;;3.80;1.50;;;;;;;24.59;40.64;101801.06;16104953;19;131198;-43
2023/06/21 22:59:08;;;;;;;4.30;1.60;;;;;;;24.57;40.36;101792.94;16101408;19;130265;-44
2023/06/21 23:04:30;;;;;;;4.53;1.60;;;;;;;24.58;40.04;101796.56;16107626;19;131603;-44
2023/06/21 23:09:56;;;;;;;3.13;1.70;;;;;;;24.56;40.05;101805.25;16105867;19;131061;-46
2023/06/21 23:15:19;;;;;;;1.70;1.50;;;;;;;24.56;40.39;101804.38;16097569;19;130956;-41
2023/06/21 23:20:41;;;;;;;2.13;1.50;;;;;;;24.57;40.33;101806.94;16099049;19;131054;-41
2023/06/21 23:26:04;;;;;;;4.25;1.77;;;;;;;24.56;40.30;101794.03;16102588;19;130880;-45
2023/06/21 23:31:26;;;;;;;4.63;2.15;;;;;;;24.55;40.08;101800.75;16104482;19;130879;-45
2023/06/21 23:36:50;;;;;;;3.28;1.85;;;;;;;24.54;40.40;101801.84;16101359;19;130017;-46
2023/06/21 23:42:12;;;;;;;4.03;1.70;;;;;;;24.54;40.26;101790.66;16102083;19;131209;-44
2023/06/21 23:47:35;;;;;;;3.25;1.77;;;;;;;24.54;40.28;101787.88;16107274;19;131174;-42
2023/06/21 23:52:57;;;;;;;2.47;1.50;;;;;;;24.52;40.25;101776.09;16099110;19;130645;-47
2023/06/21 23:58:19;;;;;;;2.83;1.60;;;;;;;24.52;40.33;101781.69;16099780;19;134821;-47
